AAL212 KSDF-EPKT
Flight info
| Callsign | AAL212 |
|---|---|
| Flight time | N/A |
| Altitude | 35000 |
| Route | EEVAA1 SHIPR DCT EKN DCT JFK DCT ACK DCT VITOL/M082F350 N21A CARAC DCT BOBTU DCT 4740N DCT 5030N/M082F370 DCT 52N018W/N0473F370 DCT SHA DCT ADMUP DCT FACTU/N0476F390 P155 SOMVA DCT SPL DCT RKN L980 SAS L986 LASIS T714 MOFKE |
| Aircraft | B772/H-SDE2E3FGHIJ5LORVWXY/LB1D1 |
Departure
| Time | 2026-05-07 10:21 |
|---|---|
| Airport | Louisville Muhammad Ali International Airport (KSDF) |
Arrival
| Time | N/A |
|---|---|
| Airport | Katowice Wojciech Korfanty International Airport (EPKT) |
| Time | Latitude | Longitude | Altitude | Speed | Heading |
|---|---|---|---|---|---|
| 2026-05-07 10:01 | 38.18358 | -85.74169 | 491 ft | 0 kts | 138° |
| 2026-05-07 10:06 | 38.18359 | -85.74170 | 491 ft | 1 kts | 138° |
| 2026-05-07 10:06 | 38.18371 | -85.74183 | 478 ft | 3 kts | 138° |
| 2026-05-07 10:06 | 38.18379 | -85.74178 | 476 ft | 3 kts | 255° |
| 2026-05-07 10:06 | 38.18385 | -85.74200 | 490 ft | 3 kts | 291° |
| 2026-05-07 10:07 | 38.18387 | -85.74223 | 474 ft | 3 kts | 264° |
| 2026-05-07 10:07 | 38.18376 | -85.74237 | 474 ft | 3 kts | 211° |
| 2026-05-07 10:07 | 38.18382 | -85.74235 | 490 ft | 3 kts | 195° |
| 2026-05-07 10:07 | 38.18400 | -85.74229 | 483 ft | 2 kts | 195° |
| 2026-05-07 10:08 | 38.18403 | -85.74228 | 484 ft | 0 kts | 195° |
| 2026-05-07 10:12 | 38.18396 | -85.74231 | 481 ft | 5 kts | 195° |
| 2026-05-07 10:13 | 38.18331 | -85.74253 | 484 ft | 9 kts | 199° |
| 2026-05-07 10:13 | 38.18308 | -85.74266 | 485 ft | 0 kts | 206° |
| 2026-05-07 10:13 | 38.18300 | -85.74272 | 486 ft | 2 kts | 209° |
| 2026-05-07 10:14 | 38.18298 | -85.74274 | 486 ft | 0 kts | 210° |
| 2026-05-07 10:15 | 38.18266 | -85.74323 | 482 ft | 11 kts | 231° |
| 2026-05-07 10:15 | 38.18209 | -85.74330 | 483 ft | 9 kts | 162° |
| 2026-05-07 10:15 | 38.18140 | -85.74281 | 483 ft | 12 kts | 141° |
| 2026-05-07 10:16 | 38.18116 | -85.74188 | 488 ft | 18 kts | 70° |
| 2026-05-07 10:16 | 38.18181 | -85.74036 | 482 ft | 18 kts | 60° |
| 2026-05-07 10:16 | 38.18245 | -85.73895 | 484 ft | 18 kts | 59° |
| 2026-05-07 10:16 | 38.18310 | -85.73754 | 488 ft | 18 kts | 59° |
| 2026-05-07 10:17 | 38.18314 | -85.73636 | 500 ft | 13 kts | 134° |
| 2026-05-07 10:17 | 38.18323 | -85.73538 | 504 ft | 12 kts | 58° |
| 2026-05-07 10:17 | 38.18376 | -85.73454 | 509 ft | 13 kts | 25° |
| 2026-05-07 10:17 | 38.18462 | -85.73434 | 511 ft | 13 kts | 11° |
| 2026-05-07 10:18 | 38.18547 | -85.73409 | 513 ft | 13 kts | 21° |
| 2026-05-07 10:18 | 38.18544 | -85.73337 | 513 ft | 11 kts | 153° |
| 2026-05-07 10:18 | 38.18442 | -85.73295 | 512 ft | 19 kts | 165° |
| 2026-05-07 10:18 | 38.18356 | -85.73228 | 509 ft | 13 kts | 105° |
| 2026-05-07 10:19 | 38.18356 | -85.73114 | 506 ft | 15 kts | 111° |
| 2026-05-07 10:19 | 38.18268 | -85.72982 | 504 ft | 12 kts | 142° |
| 2026-05-07 10:19 | 38.18250 | -85.72972 | 504 ft | 0 kts | 163° |
| 2026-05-07 10:20 | 38.18205 | -85.72956 | 503 ft | 31 kts | 165° |
| 2026-05-07 10:21 | 38.17747 | -85.72799 | 493 ft | 104 kts | 164° |
| 2026-05-07 10:21 | 38.16835 | -85.72483 | 486 ft | 164 kts | 163° |
| 2026-05-07 10:21 | 38.15751 | -85.72106 | 1188 ft | 156 kts | 163° |
| 2026-05-07 10:21 | 38.14671 | -85.71727 | 1767 ft | 172 kts | 163° |
| 2026-05-07 10:22 | 38.13467 | -85.71326 | 2240 ft | 184 kts | 163° |
| 2026-05-07 10:22 | 38.12159 | -85.70877 | 2477 ft | 205 kts | 163° |
| 2026-05-07 10:22 | 38.10725 | -85.70390 | 2672 ft | 228 kts | 163° |
| 2026-05-07 10:22 | 38.09125 | -85.69845 | 3011 ft | 242 kts | 162° |
| 2026-05-07 10:23 | 38.07646 | -85.68804 | 3292 ft | 252 kts | 133° |
| 2026-05-07 10:23 | 38.06426 | -85.67124 | 3645 ft | 264 kts | 131° |
| 2026-05-07 10:23 | 38.05138 | -85.65407 | 4260 ft | 272 kts | 134° |
| 2026-05-07 10:23 | 38.03804 | -85.63669 | 4952 ft | 276 kts | 135° |
| 2026-05-07 10:24 | 38.02451 | -85.61918 | 5620 ft | 280 kts | 136° |
| 2026-05-07 10:24 | 38.01077 | -85.60142 | 6295 ft | 284 kts | 136° |
| 2026-05-07 10:24 | 37.99796 | -85.58269 | 6766 ft | 290 kts | 121° |
| 2026-05-07 10:24 | 37.99183 | -85.55799 | 7171 ft | 298 kts | 99° |
| 2026-05-07 10:25 | 37.98856 | -85.53171 | 7666 ft | 305 kts | 99° |
| 2026-05-07 10:25 | 37.98520 | -85.50497 | 8269 ft | 310 kts | 100° |
| 2026-05-07 10:25 | 37.98172 | -85.47773 | 8821 ft | 316 kts | 101° |
| 2026-05-07 10:25 | 37.97812 | -85.44998 | 9365 ft | 322 kts | 101° |
| 2026-05-07 10:26 | 37.97440 | -85.42170 | 9906 ft | 329 kts | 101° |
| 2026-05-07 10:26 | 37.97055 | -85.39278 | 10262 ft | 341 kts | 101° |
| 2026-05-07 10:26 | 37.96644 | -85.36213 | 10411 ft | 363 kts | 102° |
| 2026-05-07 10:26 | 37.96210 | -85.32995 | 10806 ft | 377 kts | 101° |
| 2026-05-07 10:27 | 37.95762 | -85.29678 | 11366 ft | 387 kts | 102° |
| 2026-05-07 10:27 | 37.95270 | -85.26281 | 12035 ft | 395 kts | 104° |
| 2026-05-07 10:27 | 37.94691 | -85.22853 | 12833 ft | 401 kts | 105° |
| 2026-05-07 10:27 | 37.94081 | -85.19369 | 13685 ft | 408 kts | 105° |
| 2026-05-07 10:28 | 37.93467 | -85.15835 | 14446 ft | 415 kts | 105° |
| 2026-05-07 10:28 | 37.92853 | -85.12228 | 15173 ft | 422 kts | 106° |
| 2026-05-07 10:28 | 37.92233 | -85.08561 | 15906 ft | 429 kts | 106° |
| 2026-05-07 10:28 | 37.91675 | -85.04834 | 16567 ft | 435 kts | 99° |
| 2026-05-07 10:29 | 37.91764 | -85.00963 | 17013 ft | 447 kts | 84° |
| 2026-05-07 10:29 | 37.92162 | -84.97019 | 17609 ft | 456 kts | 83° |
| 2026-05-07 10:29 | 37.92596 | -84.93011 | 18397 ft | 460 kts | 83° |
| 2026-05-07 10:30 | 37.93419 | -84.84849 | 19667 ft | 472 kts | 85° |
| 2026-05-07 10:30 | 37.93797 | -84.80744 | 20265 ft | 479 kts | 85° |
| 2026-05-07 10:30 | 37.94170 | -84.76526 | 20891 ft | 485 kts | 85° |
| 2026-05-07 10:30 | 37.94539 | -84.72249 | 21535 ft | 491 kts | 86° |
| 2026-05-07 10:31 | 37.94911 | -84.67917 | 22177 ft | 497 kts | 86° |
| 2026-05-07 10:31 | 37.95288 | -84.63527 | 22785 ft | 504 kts | 86° |
| 2026-05-07 10:31 | 37.95670 | -84.59078 | 23391 ft | 511 kts | 86° |
| 2026-05-07 10:31 | 37.96057 | -84.54580 | 23945 ft | 517 kts | 86° |
| 2026-05-07 10:32 | 37.96445 | -84.50036 | 24492 ft | 521 kts | 86° |
| 2026-05-07 10:32 | 37.96939 | -84.45467 | 25036 ft | 525 kts | 79° |
| 2026-05-07 10:32 | 37.97835 | -84.40954 | 25517 ft | 531 kts | 73° |
| 2026-05-07 10:32 | 37.98930 | -84.36457 | 26037 ft | 536 kts | 71° |
| 2026-05-07 10:33 | 38.00103 | -84.31958 | 26586 ft | 539 kts | 70° |
| 2026-05-07 10:33 | 38.01289 | -84.27426 | 27124 ft | 544 kts | 70° |
| 2026-05-07 10:33 | 38.02458 | -84.22845 | 27625 ft | 548 kts | 71° |
| 2026-05-07 10:33 | 38.03600 | -84.18216 | 28122 ft | 552 kts | 71° |
| 2026-05-07 10:34 | 38.04723 | -84.13531 | 28601 ft | 556 kts | 72° |
| 2026-05-07 10:34 | 38.05833 | -84.08807 | 29057 ft | 561 kts | 72° |
| 2026-05-07 10:34 | 38.06941 | -84.04039 | 29494 ft | 565 kts | 72° |
| 2026-05-07 10:34 | 38.08050 | -83.99249 | 29950 ft | 568 kts | 72° |
| 2026-05-07 10:35 | 38.09168 | -83.94415 | 30338 ft | 572 kts | 72° |
| 2026-05-07 10:35 | 38.10280 | -83.89612 | 30668 ft | 576 kts | 72° |
| 2026-05-07 10:35 | 38.11415 | -83.84714 | 30971 ft | 580 kts | 72° |
| 2026-05-07 10:35 | 38.12556 | -83.79789 | 31286 ft | 583 kts | 72° |
| 2026-05-07 10:36 | 38.13702 | -83.74836 | 31565 ft | 586 kts | 72° |
| 2026-05-07 10:36 | 38.14854 | -83.69848 | 31874 ft | 590 kts | 72° |
| 2026-05-07 10:36 | 38.16011 | -83.64829 | 32161 ft | 593 kts | 72° |
| 2026-05-07 10:36 | 38.17170 | -83.59785 | 32457 ft | 596 kts | 72° |
| 2026-05-07 10:37 | 38.18335 | -83.54702 | 32750 ft | 599 kts | 72° |
| 2026-05-07 10:37 | 38.19486 | -83.49671 | 33053 ft | 601 kts | 72° |
| 2026-05-07 10:37 | 38.20653 | -83.44556 | 33450 ft | 601 kts | 72° |
| 2026-05-07 10:37 | 38.21815 | -83.39449 | 33914 ft | 600 kts | 72° |
| 2026-05-07 10:38 | 38.22972 | -83.34352 | 34291 ft | 600 kts | 72° |
| 2026-05-07 10:38 | 38.24126 | -83.29257 | 34647 ft | 600 kts | 72° |
| 2026-05-07 10:38 | 38.25280 | -83.24158 | 35005 ft | 598 kts | 72° |
| 2026-05-07 10:38 | 38.26426 | -83.19082 | 35047 ft | 597 kts | 72° |
| 2026-05-07 10:39 | 38.28716 | -83.08904 | 35042 ft | 598 kts | 72° |
| 2026-05-07 10:39 | 38.31002 | -82.98702 | 35035 ft | 599 kts | 72° |
| 2026-05-07 10:40 | 38.33260 | -82.88569 | 35034 ft | 598 kts | 72° |
| 2026-05-07 10:40 | 38.35523 | -82.78371 | 35015 ft | 597 kts | 72° |
| 2026-05-07 10:41 | 38.37770 | -82.68199 | 35016 ft | 596 kts | 72° |
| 2026-05-07 10:41 | 38.40007 | -82.58027 | 35003 ft | 595 kts | 72° |
| 2026-05-07 10:42 | 38.42229 | -82.47877 | 35005 ft | 594 kts | 72° |
| 2026-05-07 10:42 | 38.44441 | -82.37729 | 35014 ft | 593 kts | 72° |
| 2026-05-07 10:43 | 38.46643 | -82.27579 | 35017 ft | 593 kts | 72° |
| 2026-05-07 10:43 | 38.48464 | -82.19146 | 35011 ft | 592 kts | 71° |
| 2026-05-07 10:44 | 38.50998 | -82.07361 | 35009 ft | 591 kts | 71° |
| 2026-05-07 10:44 | 38.52798 | -81.98955 | 35010 ft | 590 kts | 71° |
| 2026-05-07 10:45 | 38.54954 | -81.88839 | 35011 ft | 589 kts | 71° |
| 2026-05-07 10:45 | 38.57098 | -81.78737 | 35003 ft | 588 kts | 72° |
| 2026-05-07 10:46 | 38.59225 | -81.68660 | 35009 ft | 586 kts | 72° |
| 2026-05-07 10:46 | 38.61342 | -81.58586 | 35004 ft | 585 kts | 71° |
| 2026-05-07 10:47 | 38.63430 | -81.48609 | 35011 ft | 584 kts | 72° |
| 2026-05-07 10:47 | 38.65521 | -81.38565 | 35003 ft | 584 kts | 72° |
| 2026-05-07 10:48 | 38.67603 | -81.28526 | 35000 ft | 583 kts | 72° |
| 2026-05-07 10:48 | 38.69673 | -81.18490 | 35003 ft | 583 kts | 72° |
| 2026-05-07 10:49 | 38.71733 | -81.08456 | 34996 ft | 582 kts | 72° |
| 2026-05-07 10:49 | 38.73782 | -80.98422 | 34991 ft | 582 kts | 72° |
| 2026-05-07 10:50 | 38.75825 | -80.88382 | 34996 ft | 581 kts | 72° |
| 2026-05-07 10:50 | 38.77842 | -80.78418 | 34979 ft | 580 kts | 72° |
| 2026-05-07 10:51 | 38.79860 | -80.68400 | 34993 ft | 580 kts | 72° |
| 2026-05-07 10:51 | 38.81865 | -80.58399 | 34992 ft | 579 kts | 72° |
| 2026-05-07 10:52 | 38.83862 | -80.48386 | 34986 ft | 578 kts | 72° |
| 2026-05-07 10:52 | 38.85844 | -80.38398 | 34989 ft | 577 kts | 72° |
| 2026-05-07 10:53 | 38.87814 | -80.28432 | 34983 ft | 576 kts | 72° |
| 2026-05-07 10:53 | 38.89762 | -80.18528 | 34989 ft | 575 kts | 72° |
| 2026-05-07 10:54 | 38.91805 | -80.08620 | 34998 ft | 572 kts | 68° |
| 2026-05-07 10:54 | 38.94608 | -79.99115 | 35005 ft | 567 kts | 63° |
| 2026-05-07 10:55 | 38.97556 | -79.89715 | 35012 ft | 568 kts | 63° |
| 2026-05-07 10:55 | 39.00477 | -79.80270 | 34997 ft | 568 kts | 63° |
| 2026-05-07 10:56 | 39.03344 | -79.70805 | 34981 ft | 568 kts | 63° |
| 2026-05-07 10:56 | 39.06191 | -79.61324 | 34990 ft | 567 kts | 63° |
| 2026-05-07 10:57 | 39.09025 | -79.51857 | 34979 ft | 566 kts | 63° |
| 2026-05-07 10:57 | 39.11848 | -79.42409 | 34989 ft | 565 kts | 63° |
| 2026-05-07 10:58 | 39.14641 | -79.33038 | 34989 ft | 563 kts | 63° |
| 2026-05-07 10:58 | 39.17436 | -79.23625 | 34984 ft | 561 kts | 63° |
| 2026-05-07 10:59 | 39.20223 | -79.14209 | 34986 ft | 560 kts | 64° |
| 2026-05-07 10:59 | 39.22991 | -79.04821 | 34987 ft | 560 kts | 64° |
| 2026-05-07 11:00 | 39.25757 | -78.95409 | 34969 ft | 561 kts | 64° |
| 2026-05-07 11:00 | 39.28518 | -78.85983 | 34991 ft | 561 kts | 64° |
| 2026-05-07 11:01 | 39.31270 | -78.76548 | 34989 ft | 562 kts | 64° |
| 2026-05-07 11:01 | 39.34018 | -78.67091 | 34995 ft | 562 kts | 64° |
| 2026-05-07 11:02 | 39.36742 | -78.57687 | 34996 ft | 563 kts | 64° |
| 2026-05-07 11:02 | 39.39480 | -78.48200 | 34988 ft | 563 kts | 64° |
| 2026-05-07 11:03 | 39.42092 | -78.39122 | 34980 ft | 563 kts | 64° |
| 2026-05-07 11:04 | 39.44234 | -78.31649 | 34955 ft | 563 kts | 64° |
| 2026-05-07 11:04 | 39.46951 | -78.22140 | 34978 ft | 564 kts | 64° |
| 2026-05-07 11:05 | 39.49664 | -78.12612 | 34970 ft | 564 kts | 64° |
| 2026-05-07 11:05 | 39.52351 | -78.03139 | 34978 ft | 564 kts | 64° |
| 2026-05-07 11:06 | 39.55050 | -77.93594 | 34980 ft | 564 kts | 64° |
| 2026-05-07 11:06 | 39.57738 | -77.84050 | 34985 ft | 564 kts | 64° |
| 2026-05-07 11:07 | 39.60424 | -77.74475 | 34991 ft | 565 kts | 65° |
| 2026-05-07 11:07 | 39.63103 | -77.64893 | 34994 ft | 565 kts | 65° |
| 2026-05-07 11:08 | 39.65777 | -77.55294 | 34991 ft | 565 kts | 65° |
| 2026-05-07 11:08 | 39.68440 | -77.45694 | 34986 ft | 565 kts | 65° |
| 2026-05-07 11:09 | 39.71096 | -77.36086 | 34968 ft | 565 kts | 65° |
| 2026-05-07 11:09 | 39.73748 | -77.26456 | 34962 ft | 566 kts | 65° |
| 2026-05-07 11:10 | 39.76375 | -77.16883 | 34964 ft | 566 kts | 65° |
| 2026-05-07 11:10 | 39.79014 | -77.07230 | 34962 ft | 566 kts | 65° |
| 2026-05-07 11:11 | 39.81644 | -76.97571 | 34974 ft | 567 kts | 65° |
| 2026-05-07 11:11 | 39.84269 | -76.87891 | 34971 ft | 567 kts | 65° |
| 2026-05-07 11:12 | 39.86888 | -76.78203 | 34973 ft | 568 kts | 65° |
| 2026-05-07 11:12 | 39.89500 | -76.68499 | 34969 ft | 568 kts | 66° |
| 2026-05-07 11:13 | 39.92108 | -76.58770 | 34962 ft | 569 kts | 66° |
| 2026-05-07 11:13 | 39.94708 | -76.49035 | 34952 ft | 569 kts | 66° |
| 2026-05-07 11:14 | 39.97300 | -76.39293 | 34960 ft | 568 kts | 66° |
| 2026-05-07 11:14 | 39.99865 | -76.29615 | 34972 ft | 568 kts | 66° |
| 2026-05-07 11:15 | 40.02440 | -76.19861 | 34965 ft | 568 kts | 66° |
| 2026-05-07 11:15 | 40.05004 | -76.10110 | 34963 ft | 568 kts | 66° |
| 2026-05-07 11:16 | 40.07563 | -76.00342 | 34954 ft | 568 kts | 66° |
| 2026-05-07 11:16 | 40.10109 | -75.90581 | 34962 ft | 568 kts | 66° |
| 2026-05-07 11:17 | 40.12650 | -75.80804 | 34957 ft | 568 kts | 66° |
| 2026-05-07 11:17 | 40.15181 | -75.71024 | 34955 ft | 568 kts | 67° |
| 2026-05-07 11:18 | 40.17688 | -75.61299 | 34977 ft | 567 kts | 67° |
| 2026-05-07 11:18 | 40.20202 | -75.51508 | 34976 ft | 568 kts | 67° |
| 2026-05-07 11:19 | 40.22705 | -75.41720 | 34972 ft | 568 kts | 67° |
| 2026-05-07 11:19 | 40.25205 | -75.31903 | 34954 ft | 568 kts | 68° |
| 2026-05-07 11:20 | 40.27698 | -75.22076 | 34947 ft | 568 kts | 68° |
| 2026-05-07 11:20 | 40.30162 | -75.12323 | 34938 ft | 568 kts | 68° |
| 2026-05-07 11:21 | 40.32651 | -75.02438 | 34966 ft | 579 kts | 69° |
| 2026-05-07 11:21 | 40.35207 | -74.92256 | 34954 ft | 598 kts | 69° |
| 2026-05-07 11:22 | 40.37830 | -74.81748 | 34955 ft | 615 kts | 69° |
| 2026-05-07 11:22 | 40.40495 | -74.71000 | 34934 ft | 618 kts | 69° |
| 2026-05-07 11:23 | 40.43138 | -74.60289 | 34912 ft | 615 kts | 69° |
| 2026-05-07 11:23 | 40.45760 | -74.49629 | 34911 ft | 613 kts | 69° |
| 2026-05-07 11:24 | 40.48369 | -74.38985 | 34915 ft | 611 kts | 69° |
| 2026-05-07 11:24 | 40.50944 | -74.28431 | 34921 ft | 610 kts | 69° |
| 2026-05-07 11:25 | 40.53528 | -74.17792 | 34927 ft | 611 kts | 70° |
| 2026-05-07 11:25 | 40.56102 | -74.07140 | 34924 ft | 611 kts | 70° |
| 2026-05-07 11:26 | 40.58666 | -73.96482 | 34936 ft | 611 kts | 70° |
| 2026-05-07 11:26 | 40.61223 | -73.85804 | 34918 ft | 612 kts | 70° |
| 2026-05-07 11:27 | 40.63730 | -73.75091 | 34918 ft | 613 kts | 72° |
| 2026-05-07 11:27 | 40.65851 | -73.64268 | 34916 ft | 613 kts | 75° |
| 2026-05-07 11:28 | 40.67851 | -73.53358 | 34905 ft | 613 kts | 75° |
| 2026-05-07 11:28 | 40.69860 | -73.42452 | 34907 ft | 612 kts | 75° |
| 2026-05-07 11:29 | 40.71894 | -73.31570 | 34905 ft | 611 kts | 74° |
| 2026-05-07 11:29 | 40.73931 | -73.20685 | 34897 ft | 611 kts | 74° |
| 2026-05-07 11:30 | 40.75952 | -73.09804 | 34897 ft | 610 kts | 75° |
| 2026-05-07 11:30 | 40.77955 | -72.98934 | 34896 ft | 610 kts | 75° |
| 2026-05-07 11:31 | 40.79948 | -72.88053 | 34904 ft | 609 kts | 75° |
| 2026-05-07 11:31 | 40.81928 | -72.77176 | 34905 ft | 609 kts | 75° |
| 2026-05-07 11:32 | 40.84545 | -72.62714 | 34908 ft | 608 kts | 75° |
| 2026-05-07 11:33 | 40.86815 | -72.50078 | 34910 ft | 607 kts | 75° |
| 2026-05-07 11:33 | 40.88440 | -72.40977 | 34888 ft | 607 kts | 75° |
| 2026-05-07 11:34 | 40.90355 | -72.30196 | 34890 ft | 606 kts | 75° |
| 2026-05-07 11:34 | 40.92272 | -72.19339 | 34887 ft | 606 kts | 75° |
| 2026-05-07 11:35 | 40.94177 | -72.08490 | 34887 ft | 605 kts | 75° |
| 2026-05-07 11:35 | 40.96073 | -71.97629 | 34888 ft | 605 kts | 75° |
| 2026-05-07 11:36 | 40.97959 | -71.86756 | 34888 ft | 605 kts | 75° |
| 2026-05-07 11:36 | 40.99819 | -71.75974 | 34885 ft | 604 kts | 76° |
| 2026-05-07 11:37 | 41.01678 | -71.65128 | 34875 ft | 603 kts | 76° |
| 2026-05-07 11:37 | 41.03528 | -71.54270 | 34876 ft | 603 kts | 76° |
| 2026-05-07 11:38 | 41.05366 | -71.43416 | 34874 ft | 602 kts | 76° |
| 2026-05-07 11:38 | 41.07178 | -71.32650 | 34870 ft | 602 kts | 76° |
| 2026-05-07 11:39 | 41.08989 | -71.21825 | 34868 ft | 601 kts | 76° |
| 2026-05-07 11:39 | 41.10786 | -71.11016 | 34861 ft | 600 kts | 76° |
| 2026-05-07 11:40 | 41.12573 | -71.00200 | 34855 ft | 600 kts | 76° |
| 2026-05-07 11:40 | 41.14347 | -70.89399 | 34857 ft | 599 kts | 76° |
| 2026-05-07 11:41 | 41.16109 | -70.78597 | 34857 ft | 598 kts | 76° |
| 2026-05-07 11:41 | 41.17849 | -70.67870 | 34865 ft | 597 kts | 76° |
| 2026-05-07 11:42 | 41.19588 | -70.57082 | 34858 ft | 597 kts | 77° |
| 2026-05-07 11:42 | 41.21315 | -70.46293 | 34860 ft | 597 kts | 77° |
| 2026-05-07 11:43 | 41.23035 | -70.35485 | 34840 ft | 597 kts | 77° |
| 2026-05-07 11:43 | 41.24739 | -70.24705 | 34835 ft | 597 kts | 77° |
| 2026-05-07 11:44 | 41.26435 | -70.13904 | 34838 ft | 596 kts | 77° |
| 2026-05-07 11:44 | 41.28121 | -70.03108 | 34829 ft | 596 kts | 77° |
| 2026-05-07 11:45 | 41.29922 | -69.92429 | 34827 ft | 595 kts | 75° |
| 2026-05-07 11:45 | 41.31885 | -69.81746 | 34843 ft | 594 kts | 74° |
| 2026-05-07 11:46 | 41.33835 | -69.71063 | 34840 ft | 594 kts | 75° |
| 2026-05-07 11:46 | 41.35737 | -69.60365 | 34842 ft | 594 kts | 75° |
| 2026-05-07 11:47 | 41.37611 | -69.49653 | 34843 ft | 594 kts | 75° |
| 2026-05-07 11:47 | 41.39475 | -69.38939 | 34833 ft | 593 kts | 75° |
| 2026-05-07 11:48 | 41.41320 | -69.28298 | 34836 ft | 592 kts | 75° |
| 2026-05-07 11:48 | 41.43163 | -69.17612 | 34843 ft | 591 kts | 75° |
| 2026-05-07 11:49 | 41.44997 | -69.06923 | 34838 ft | 591 kts | 75° |
| 2026-05-07 11:49 | 41.46816 | -68.96249 | 34839 ft | 591 kts | 75° |
| 2026-05-07 11:50 | 41.48628 | -68.85558 | 34833 ft | 591 kts | 75° |
| 2026-05-07 11:50 | 41.50430 | -68.74854 | 34828 ft | 591 kts | 75° |
| 2026-05-07 11:51 | 41.52212 | -68.64205 | 34828 ft | 591 kts | 75° |
| 2026-05-07 11:51 | 41.53994 | -68.53495 | 34832 ft | 591 kts | 75° |
| 2026-05-07 11:52 | 41.55767 | -68.42773 | 34828 ft | 591 kts | 76° |
| 2026-05-07 11:52 | 41.57530 | -68.32044 | 34826 ft | 591 kts | 76° |
| 2026-05-07 11:53 | 41.59280 | -68.21326 | 34824 ft | 590 kts | 76° |
| 2026-05-07 11:53 | 41.61020 | -68.10599 | 34819 ft | 589 kts | 76° |
| 2026-05-07 11:54 | 41.62735 | -67.99969 | 34823 ft | 588 kts | 76° |
| 2026-05-07 11:54 | 41.64447 | -67.89289 | 34823 ft | 588 kts | 76° |
| 2026-05-07 11:55 | 41.66150 | -67.78594 | 34827 ft | 588 kts | 76° |
| 2026-05-07 11:55 | 41.67843 | -67.67894 | 34825 ft | 588 kts | 76° |
| 2026-05-07 11:56 | 41.69525 | -67.57196 | 34824 ft | 588 kts | 76° |
| 2026-05-07 11:56 | 41.71200 | -67.46476 | 34824 ft | 587 kts | 76° |
| 2026-05-07 11:57 | 41.72861 | -67.35774 | 34825 ft | 587 kts | 77° |
| 2026-05-07 11:57 | 41.74512 | -67.25060 | 34821 ft | 587 kts | 77° |
| 2026-05-07 11:58 | 41.76141 | -67.14425 | 34825 ft | 586 kts | 77° |
| 2026-05-07 11:58 | 41.77772 | -67.03719 | 34834 ft | 586 kts | 77° |
| 2026-05-07 11:59 | 41.79658 | -66.93124 | 34829 ft | 584 kts | 72° |
| 2026-05-07 11:59 | 41.81856 | -66.82648 | 34832 ft | 583 kts | 71° |
| 2026-05-07 12:00 | 41.84074 | -66.72169 | 34831 ft | 584 kts | 72° |
| 2026-05-07 12:00 | 41.86247 | -66.61668 | 34831 ft | 584 kts | 72° |
| 2026-05-07 12:01 | 41.88387 | -66.51150 | 34839 ft | 584 kts | 72° |
| 2026-05-07 12:01 | 41.90501 | -66.40682 | 34838 ft | 584 kts | 72° |
| 2026-05-07 12:02 | 41.92622 | -66.30145 | 34832 ft | 584 kts | 72° |
| 2026-05-07 12:02 | 41.94735 | -66.19612 | 34830 ft | 583 kts | 72° |
| 2026-05-07 12:03 | 41.96830 | -66.09109 | 34838 ft | 581 kts | 72° |
| 2026-05-07 12:03 | 41.98913 | -65.98615 | 34834 ft | 580 kts | 73° |
| 2026-05-07 12:04 | 42.00983 | -65.88132 | 34842 ft | 579 kts | 73° |
| 2026-05-07 12:04 | 42.03025 | -65.77731 | 34845 ft | 579 kts | 73° |
| 2026-05-07 12:05 | 42.05071 | -65.67260 | 34838 ft | 579 kts | 73° |
| 2026-05-07 12:05 | 42.07105 | -65.56791 | 34852 ft | 578 kts | 73° |
| 2026-05-07 12:06 | 42.09128 | -65.46325 | 34860 ft | 577 kts | 73° |
| 2026-05-07 12:06 | 42.11139 | -65.35859 | 34855 ft | 577 kts | 73° |
| 2026-05-07 12:07 | 42.13138 | -65.25407 | 34858 ft | 576 kts | 73° |
| 2026-05-07 12:07 | 42.15128 | -65.14946 | 34858 ft | 575 kts | 73° |
| 2026-05-07 12:08 | 42.17104 | -65.04498 | 34858 ft | 575 kts | 73° |
| 2026-05-07 12:08 | 42.19057 | -64.94115 | 34876 ft | 574 kts | 73° |
| 2026-05-07 12:09 | 42.21014 | -64.83662 | 34861 ft | 574 kts | 73° |
| 2026-05-07 12:09 | 42.22959 | -64.73210 | 34884 ft | 575 kts | 74° |
| 2026-05-07 12:10 | 42.24896 | -64.62740 | 34867 ft | 574 kts | 74° |
| 2026-05-07 12:10 | 42.26817 | -64.52299 | 34882 ft | 572 kts | 74° |
| 2026-05-07 12:11 | 42.28724 | -64.41883 | 34885 ft | 570 kts | 74° |
| 2026-05-07 12:11 | 42.30618 | -64.31475 | 34887 ft | 570 kts | 74° |
| 2026-05-07 12:12 | 42.32504 | -64.21058 | 34889 ft | 572 kts | 74° |
| 2026-05-07 12:12 | 42.34371 | -64.10694 | 34891 ft | 570 kts | 74° |
| 2026-05-07 12:13 | 42.36232 | -64.00288 | 34906 ft | 568 kts | 74° |
| 2026-05-07 12:13 | 42.38079 | -63.89909 | 34909 ft | 567 kts | 74° |
| 2026-05-07 12:14 | 42.39914 | -63.79538 | 34914 ft | 567 kts | 75° |
| 2026-05-07 12:14 | 42.41744 | -63.69144 | 34916 ft | 567 kts | 75° |
| 2026-05-07 12:15 | 42.43562 | -63.58751 | 34926 ft | 567 kts | 75° |
| 2026-05-07 12:15 | 42.45369 | -63.48364 | 34928 ft | 567 kts | 75° |
| 2026-05-07 12:16 | 42.47166 | -63.37975 | 34933 ft | 567 kts | 75° |
| 2026-05-07 12:16 | 42.48955 | -63.27571 | 34935 ft | 566 kts | 75° |
| 2026-05-07 12:17 | 42.50723 | -63.17229 | 34943 ft | 566 kts | 75° |
| 2026-05-07 12:17 | 42.52492 | -63.06818 | 34952 ft | 567 kts | 75° |
| 2026-05-07 12:18 | 42.54254 | -62.96392 | 34944 ft | 567 kts | 75° |
| 2026-05-07 12:18 | 42.56009 | -62.85943 | 34938 ft | 567 kts | 75° |
| 2026-05-07 12:19 | 42.57741 | -62.75567 | 34953 ft | 568 kts | 75° |
| 2026-05-07 12:19 | 42.59478 | -62.65101 | 34954 ft | 569 kts | 75° |
| 2026-05-07 12:20 | 42.61208 | -62.54612 | 34950 ft | 569 kts | 75° |
| 2026-05-07 12:20 | 42.62930 | -62.44110 | 34963 ft | 570 kts | 75° |
| 2026-05-07 12:21 | 42.64642 | -62.33603 | 34967 ft | 570 kts | 75° |
| 2026-05-07 12:21 | 42.66343 | -62.23093 | 34967 ft | 569 kts | 75° |
| 2026-05-07 12:22 | 42.67672 | -62.14839 | 34967 ft | 568 kts | 75° |
| 2026-05-07 12:22 | 42.69531 | -62.03226 | 34976 ft | 567 kts | 75° |
| 2026-05-07 12:23 | 42.71197 | -61.92756 | 34978 ft | 566 kts | 75° |
| 2026-05-07 12:23 | 42.72848 | -61.82309 | 34978 ft | 565 kts | 75° |
| 2026-05-07 12:24 | 42.74222 | -61.73567 | 34987 ft | 564 kts | 75° |
| 2026-05-07 12:24 | 42.75841 | -61.63202 | 34987 ft | 563 kts | 75° |
| 2026-05-07 12:25 | 42.77458 | -61.52785 | 34993 ft | 562 kts | 75° |
| 2026-05-07 12:25 | 42.79063 | -61.42384 | 35000 ft | 561 kts | 75° |
| 2026-05-07 12:26 | 42.80659 | -61.31971 | 35000 ft | 561 kts | 75° |
| 2026-05-07 12:26 | 42.82244 | -61.21564 | 35003 ft | 561 kts | 75° |
| 2026-05-07 12:27 | 42.83819 | -61.11156 | 35011 ft | 560 kts | 75° |
| 2026-05-07 12:27 | 42.85373 | -61.00815 | 35010 ft | 559 kts | 75° |
| 2026-05-07 12:28 | 42.86923 | -60.90434 | 35019 ft | 558 kts | 75° |
| 2026-05-07 12:28 | 42.88464 | -60.80050 | 35026 ft | 557 kts | 75° |
| 2026-05-07 12:29 | 42.89990 | -60.69697 | 35024 ft | 556 kts | 75° |
| 2026-05-07 12:29 | 42.91504 | -60.59358 | 35028 ft | 556 kts | 75° |
| 2026-05-07 12:30 | 42.93008 | -60.49019 | 35042 ft | 555 kts | 75° |
| 2026-05-07 12:30 | 42.94499 | -60.38696 | 35039 ft | 554 kts | 75° |
| 2026-05-07 12:31 | 42.95981 | -60.28368 | 35042 ft | 554 kts | 75° |
| 2026-05-07 12:31 | 42.97453 | -60.18044 | 35046 ft | 553 kts | 75° |
| 2026-05-07 12:32 | 42.98914 | -60.07724 | 35054 ft | 553 kts | 76° |
| 2026-05-07 12:32 | 43.00420 | -59.97513 | 35056 ft | 550 kts | 72° |
| 2026-05-07 12:33 | 43.03276 | -59.82361 | 35050 ft | 547 kts | 71° |
| 2026-05-07 12:33 | 43.05220 | -59.72311 | 35060 ft | 547 kts | 71° |
| 2026-05-07 12:34 | 43.07120 | -59.62254 | 35056 ft | 546 kts | 71° |
| 2026-05-07 12:34 | 43.08993 | -59.52181 | 35056 ft | 546 kts | 71° |
| 2026-05-07 12:35 | 43.10853 | -59.42104 | 35068 ft | 545 kts | 71° |
| 2026-05-07 12:35 | 43.12704 | -59.32034 | 35069 ft | 545 kts | 72° |
| 2026-05-07 12:36 | 43.14535 | -59.22033 | 35068 ft | 544 kts | 72° |
| 2026-05-07 12:36 | 43.16366 | -59.11979 | 35068 ft | 544 kts | 72° |
| 2026-05-07 12:37 | 43.18187 | -59.01925 | 35073 ft | 543 kts | 72° |
| 2026-05-07 12:37 | 43.19997 | -58.91876 | 35073 ft | 542 kts | 72° |
| 2026-05-07 12:38 | 43.21794 | -58.81841 | 35073 ft | 542 kts | 72° |
| 2026-05-07 12:38 | 43.23551 | -58.71980 | 35079 ft | 541 kts | 72° |
| 2026-05-07 12:39 | 43.25328 | -58.61952 | 35082 ft | 540 kts | 72° |
| 2026-05-07 12:39 | 43.27092 | -58.51944 | 35081 ft | 540 kts | 72° |
| 2026-05-07 12:40 | 43.28837 | -58.41985 | 35082 ft | 539 kts | 72° |
| 2026-05-07 12:40 | 43.30580 | -58.31983 | 35084 ft | 539 kts | 72° |
| 2026-05-07 12:41 | 43.32314 | -58.21980 | 35087 ft | 538 kts | 72° |
| 2026-05-07 12:41 | 43.34037 | -58.11980 | 35088 ft | 538 kts | 73° |
| 2026-05-07 12:42 | 43.35750 | -58.01983 | 35089 ft | 537 kts | 73° |
| 2026-05-07 12:42 | 43.37442 | -57.92056 | 35086 ft | 537 kts | 73° |
| 2026-05-07 12:43 | 43.39135 | -57.82064 | 35090 ft | 536 kts | 73° |
| 2026-05-07 12:43 | 43.40815 | -57.72091 | 35089 ft | 535 kts | 73° |
| 2026-05-07 12:44 | 43.42483 | -57.62134 | 35090 ft | 533 kts | 73° |
| 2026-05-07 12:44 | 43.44136 | -57.52205 | 35092 ft | 532 kts | 73° |
| 2026-05-07 12:45 | 43.45781 | -57.42277 | 35097 ft | 530 kts | 73° |
| 2026-05-07 12:45 | 43.47409 | -57.32387 | 35102 ft | 528 kts | 74° |
| 2026-05-07 12:46 | 43.49014 | -57.22584 | 35105 ft | 527 kts | 74° |
| 2026-05-07 12:46 | 43.50615 | -57.12751 | 35110 ft | 526 kts | 74° |
| 2026-05-07 12:47 | 43.52205 | -57.02924 | 35111 ft | 524 kts | 74° |
| 2026-05-07 12:47 | 43.53782 | -56.93124 | 35118 ft | 523 kts | 75° |
| 2026-05-07 12:48 | 43.55346 | -56.83340 | 35120 ft | 522 kts | 75° |
| 2026-05-07 12:48 | 43.56900 | -56.73571 | 35120 ft | 520 kts | 75° |
| 2026-05-07 12:49 | 43.58440 | -56.63826 | 35123 ft | 519 kts | 75° |
| 2026-05-07 12:49 | 43.59958 | -56.54167 | 35127 ft | 518 kts | 75° |
| 2026-05-07 12:50 | 43.61476 | -56.44458 | 35128 ft | 517 kts | 76° |
| 2026-05-07 12:50 | 43.62955 | -56.34930 | 35131 ft | 516 kts | 76° |
| 2026-05-07 12:51 | 43.64324 | -56.26069 | 35134 ft | 515 kts | 76° |
| 2026-05-07 12:51 | 43.65810 | -56.16394 | 35133 ft | 514 kts | 77° |
| 2026-05-07 12:52 | 43.67286 | -56.06726 | 35139 ft | 514 kts | 77° |
| 2026-05-07 12:52 | 43.68752 | -55.97062 | 35142 ft | 514 kts | 77° |
| 2026-05-07 12:53 | 43.70210 | -55.87398 | 35143 ft | 513 kts | 77° |
| 2026-05-07 12:53 | 43.71656 | -55.77752 | 35141 ft | 512 kts | 78° |
| 2026-05-07 12:54 | 43.73084 | -55.68169 | 35147 ft | 512 kts | 78° |
| 2026-05-07 12:54 | 43.74512 | -55.58524 | 35144 ft | 511 kts | 78° |
| 2026-05-07 12:55 | 43.75928 | -55.48898 | 35154 ft | 510 kts | 79° |
| 2026-05-07 12:55 | 43.77335 | -55.39283 | 35154 ft | 510 kts | 79° |
| 2026-05-07 12:56 | 43.78731 | -55.29677 | 35157 ft | 509 kts | 79° |
| 2026-05-07 12:56 | 43.80117 | -55.20081 | 35158 ft | 508 kts | 79° |
| 2026-05-07 12:57 | 43.81486 | -55.10546 | 35163 ft | 507 kts | 79° |
| 2026-05-07 12:57 | 43.82851 | -55.00974 | 35165 ft | 506 kts | 79° |
| 2026-05-07 12:58 | 43.84208 | -54.91399 | 35172 ft | 506 kts | 80° |
| 2026-05-07 12:58 | 43.85554 | -54.81846 | 35179 ft | 505 kts | 80° |
| 2026-05-07 12:59 | 43.86888 | -54.72310 | 35181 ft | 504 kts | 80° |
| 2026-05-07 12:59 | 43.88214 | -54.62773 | 35184 ft | 503 kts | 80° |
| 2026-05-07 13:00 | 43.89531 | -54.53245 | 35189 ft | 503 kts | 80° |
| 2026-05-07 13:00 | 43.90839 | -54.43715 | 35185 ft | 503 kts | 80° |
| 2026-05-07 13:01 | 43.92137 | -54.34195 | 35197 ft | 502 kts | 80° |
| 2026-05-07 13:01 | 43.93420 | -54.24725 | 35200 ft | 502 kts | 80° |
| 2026-05-07 13:02 | 43.94704 | -54.15191 | 35202 ft | 502 kts | 80° |
| 2026-05-07 13:02 | 43.95979 | -54.05653 | 35209 ft | 502 kts | 80° |
| 2026-05-07 13:03 | 43.97245 | -53.96125 | 35211 ft | 501 kts | 79° |
| 2026-05-07 13:03 | 43.98501 | -53.86605 | 35215 ft | 501 kts | 79° |
| 2026-05-07 13:04 | 43.99747 | -53.77097 | 35221 ft | 500 kts | 79° |
| 2026-05-07 13:04 | 44.00983 | -53.67602 | 35224 ft | 499 kts | 79° |
| 2026-05-07 13:05 | 44.02211 | -53.58106 | 35225 ft | 499 kts | 79° |
| 2026-05-07 13:05 | 44.03428 | -53.48627 | 35229 ft | 498 kts | 79° |
| 2026-05-07 13:06 | 44.04638 | -53.39143 | 35232 ft | 498 kts | 79° |
| 2026-05-07 13:06 | 44.05839 | -53.29662 | 35238 ft | 498 kts | 79° |
| 2026-05-07 13:07 | 44.07025 | -53.20231 | 35240 ft | 498 kts | 79° |
| 2026-05-07 13:07 | 44.08211 | -53.10730 | 35241 ft | 498 kts | 79° |
| 2026-05-07 13:08 | 44.09390 | -53.01231 | 35247 ft | 498 kts | 79° |
| 2026-05-07 13:08 | 44.10560 | -52.91735 | 35249 ft | 498 kts | 79° |
| 2026-05-07 13:09 | 44.11886 | -52.82292 | 35251 ft | 497 kts | 74° |
| 2026-05-07 13:09 | 44.14227 | -52.73280 | 35263 ft | 495 kts | 66° |
| 2026-05-07 13:10 | 44.16869 | -52.64480 | 35264 ft | 495 kts | 66° |
| 2026-05-07 13:10 | 44.19511 | -52.55611 | 35263 ft | 496 kts | 66° |
| 2026-05-07 13:11 | 44.22119 | -52.46709 | 35264 ft | 496 kts | 66° |
| 2026-05-07 13:11 | 44.24702 | -52.37799 | 35268 ft | 496 kts | 67° |
| 2026-05-07 13:12 | 44.26841 | -52.30392 | 35276 ft | 495 kts | 67° |
| 2026-05-07 13:12 | 44.29413 | -52.21461 | 35274 ft | 495 kts | 67° |
| 2026-05-07 13:13 | 44.31972 | -52.12546 | 35275 ft | 495 kts | 67° |
| 2026-05-07 13:13 | 44.34528 | -52.03613 | 35285 ft | 495 kts | 67° |
| 2026-05-07 13:14 | 44.37075 | -51.94680 | 35282 ft | 495 kts | 67° |
| 2026-05-07 13:14 | 44.39617 | -51.85732 | 35286 ft | 495 kts | 67° |
| 2026-05-07 13:15 | 44.42150 | -51.76785 | 35286 ft | 495 kts | 67° |
| 2026-05-07 13:15 | 44.44675 | -51.67831 | 35292 ft | 495 kts | 68° |
| 2026-05-07 13:16 | 44.47177 | -51.58925 | 35296 ft | 495 kts | 68° |
| 2026-05-07 13:16 | 44.49693 | -51.49939 | 35302 ft | 496 kts | 68° |
| 2026-05-07 13:17 | 44.52204 | -51.40938 | 35300 ft | 496 kts | 68° |
| 2026-05-07 13:17 | 44.54712 | -51.31912 | 35304 ft | 497 kts | 68° |
| 2026-05-07 13:18 | 44.57213 | -51.22882 | 35307 ft | 498 kts | 68° |
| 2026-05-07 13:18 | 44.59715 | -51.13812 | 35311 ft | 498 kts | 68° |
| 2026-05-07 13:19 | 44.62208 | -51.04742 | 35315 ft | 498 kts | 68° |
| 2026-05-07 13:19 | 44.64694 | -50.95659 | 35316 ft | 498 kts | 68° |
| 2026-05-07 13:20 | 44.67173 | -50.86571 | 35320 ft | 498 kts | 68° |
| 2026-05-07 13:20 | 44.69627 | -50.77543 | 35325 ft | 498 kts | 68° |
| 2026-05-07 13:21 | 44.72092 | -50.68437 | 35329 ft | 497 kts | 68° |
| 2026-05-07 13:21 | 44.74547 | -50.59337 | 35328 ft | 497 kts | 68° |
| 2026-05-07 13:22 | 44.76992 | -50.50235 | 35333 ft | 497 kts | 68° |
| 2026-05-07 13:22 | 44.79432 | -50.41119 | 35335 ft | 497 kts | 68° |
| 2026-05-07 13:23 | 44.81863 | -50.32003 | 35337 ft | 497 kts | 69° |
| 2026-05-07 13:23 | 44.84289 | -50.22868 | 35341 ft | 497 kts | 69° |
| 2026-05-07 13:24 | 44.86691 | -50.13792 | 35340 ft | 497 kts | 69° |
| 2026-05-07 13:24 | 44.89102 | -50.04647 | 35342 ft | 497 kts | 69° |
| 2026-05-07 13:25 | 44.91502 | -49.95506 | 35350 ft | 497 kts | 69° |
| 2026-05-07 13:25 | 44.93897 | -49.86349 | 35348 ft | 497 kts | 69° |
| 2026-05-07 13:26 | 44.96270 | -49.77239 | 35353 ft | 497 kts | 69° |
| 2026-05-07 13:26 | 44.98665 | -49.68012 | 35354 ft | 497 kts | 69° |
| 2026-05-07 13:27 | 45.01025 | -49.58883 | 35355 ft | 497 kts | 69° |
| 2026-05-07 13:27 | 45.03394 | -49.49686 | 35359 ft | 497 kts | 69° |
| 2026-05-07 13:28 | 45.05755 | -49.40479 | 35363 ft | 497 kts | 69° |
| 2026-05-07 13:28 | 45.08107 | -49.31271 | 35365 ft | 497 kts | 69° |
| 2026-05-07 13:29 | 45.10449 | -49.22069 | 35367 ft | 497 kts | 69° |
| 2026-05-07 13:29 | 45.12780 | -49.12869 | 35370 ft | 496 kts | 69° |
| 2026-05-07 13:30 | 45.15104 | -49.03663 | 35369 ft | 496 kts | 69° |
| 2026-05-07 13:30 | 45.17419 | -48.94456 | 35370 ft | 496 kts | 69° |
| 2026-05-07 13:31 | 45.19710 | -48.85307 | 35379 ft | 495 kts | 69° |
| 2026-05-07 13:31 | 45.22008 | -48.76095 | 35381 ft | 495 kts | 69° |
| 2026-05-07 13:32 | 45.24295 | -48.66889 | 35380 ft | 495 kts | 69° |
| 2026-05-07 13:32 | 45.26576 | -48.57670 | 35383 ft | 494 kts | 69° |
| 2026-05-07 13:33 | 45.28848 | -48.48448 | 35372 ft | 494 kts | 69° |
| 2026-05-07 13:33 | 45.31109 | -48.39236 | 35382 ft | 493 kts | 69° |
| 2026-05-07 13:34 | 45.34481 | -48.25425 | 35383 ft | 493 kts | 70° |
| 2026-05-07 13:35 | 45.36703 | -48.16280 | 35385 ft | 492 kts | 70° |
| 2026-05-07 13:35 | 45.38929 | -48.07078 | 35382 ft | 492 kts | 70° |
| 2026-05-07 13:36 | 45.41149 | -47.97867 | 35386 ft | 492 kts | 70° |
| 2026-05-07 13:36 | 45.43362 | -47.88643 | 35384 ft | 492 kts | 70° |
| 2026-05-07 13:37 | 45.45563 | -47.79433 | 35392 ft | 491 kts | 70° |
| 2026-05-07 13:37 | 45.47758 | -47.70209 | 35389 ft | 491 kts | 70° |
| 2026-05-07 13:38 | 45.49943 | -47.60988 | 35391 ft | 490 kts | 70° |
| 2026-05-07 13:38 | 45.52116 | -47.51780 | 35390 ft | 490 kts | 70° |
| 2026-05-07 13:39 | 45.54281 | -47.42564 | 35397 ft | 490 kts | 70° |
| 2026-05-07 13:39 | 45.56424 | -47.33410 | 35388 ft | 489 kts | 70° |
| 2026-05-07 13:40 | 45.58570 | -47.24198 | 35392 ft | 489 kts | 70° |
| 2026-05-07 13:40 | 45.60706 | -47.14996 | 35395 ft | 488 kts | 70° |
| 2026-05-07 13:41 | 45.62833 | -47.05790 | 35392 ft | 488 kts | 70° |
| 2026-05-07 13:41 | 45.64951 | -46.96586 | 35399 ft | 487 kts | 70° |
| 2026-05-07 13:42 | 45.67062 | -46.87372 | 35398 ft | 487 kts | 70° |
| 2026-05-07 13:42 | 45.69162 | -46.78167 | 35400 ft | 487 kts | 70° |
| 2026-05-07 13:43 | 45.71256 | -46.68950 | 35400 ft | 487 kts | 70° |
| 2026-05-07 13:43 | 45.73341 | -46.59734 | 35399 ft | 486 kts | 70° |
| 2026-05-07 13:44 | 45.75416 | -46.50521 | 35400 ft | 486 kts | 70° |
| 2026-05-07 13:44 | 45.77485 | -46.41298 | 35402 ft | 486 kts | 70° |
| 2026-05-07 13:45 | 45.79544 | -46.32076 | 35402 ft | 486 kts | 70° |
| 2026-05-07 13:45 | 45.81596 | -46.22845 | 35402 ft | 486 kts | 70° |
| 2026-05-07 13:46 | 45.83628 | -46.13667 | 35401 ft | 486 kts | 70° |
| 2026-05-07 13:46 | 45.85663 | -46.04430 | 35402 ft | 485 kts | 70° |
| 2026-05-07 13:47 | 45.87691 | -45.95189 | 35397 ft | 485 kts | 70° |
| 2026-05-07 13:47 | 45.89712 | -45.85938 | 35399 ft | 485 kts | 70° |
| 2026-05-07 13:48 | 45.91720 | -45.76706 | 35394 ft | 484 kts | 70° |
| 2026-05-07 13:48 | 45.93381 | -45.69036 | 35398 ft | 484 kts | 70° |